createdAt,value
2019-02-20T00:01:15.359Z,3.30
2019-02-20T00:03:42.766Z,3.47
2019-02-20T00:06:10.253Z,3.83
2019-02-20T00:08:37.828Z,3.77
2019-02-20T00:11:05.338Z,3.53
2019-02-20T00:13:32.724Z,3.63
2019-02-20T00:16:00.197Z,3.60
2019-02-20T00:18:27.634Z,3.80
2019-02-20T00:20:55.040Z,3.20
2019-02-20T00:23:22.638Z,3.70
2019-02-20T00:25:50.086Z,3.83
2019-02-20T00:28:17.498Z,4.00
2019-02-20T00:30:44.898Z,3.47
2019-02-20T00:33:12.367Z,4.33
2019-02-20T00:35:39.770Z,4.17
2019-02-20T00:38:07.248Z,3.60
2019-02-20T00:40:34.789Z,4.10
2019-02-20T00:43:02.333Z,3.93
2019-02-20T00:45:47.657Z,3.97
2019-02-20T00:48:34.002Z,3.50
2019-02-20T00:51:13.962Z,4.17
2019-02-20T00:53:47.333Z,3.97
2019-02-20T00:56:14.895Z,3.87
2019-02-20T00:58:42.384Z,3.63
2019-02-20T01:01:09.873Z,4.53
2019-02-20T01:03:37.399Z,4.03
2019-02-20T01:06:05.106Z,3.67
2019-02-20T01:08:32.583Z,3.73
2019-02-20T01:11:00.065Z,4.00
2019-02-20T01:13:27.516Z,4.17
2019-02-20T01:15:54.929Z,3.90
2019-02-20T01:18:22.419Z,4.20
2019-02-20T01:20:49.873Z,4.87
2019-02-20T01:23:17.598Z,3.70
2019-02-20T01:25:45.007Z,4.40
2019-02-20T01:28:12.436Z,4.17
2019-02-20T01:30:39.902Z,4.13
2019-02-20T01:33:07.392Z,4.10
2019-02-20T01:35:34.895Z,4.03
2019-02-20T01:38:02.324Z,4.00
2019-02-20T01:40:29.729Z,4.50
2019-02-20T01:42:57.235Z,4.17
2019-02-20T01:45:24.654Z,4.67
2019-02-20T01:47:52.037Z,4.60
2019-02-20T01:50:19.457Z,4.27
2019-02-20T01:52:46.968Z,4.03
2019-02-20T01:55:14.445Z,4.60
2019-02-20T01:57:41.835Z,4.80
2019-02-20T02:00:09.269Z,4.47
2019-02-20T02:02:36.737Z,4.10
2019-02-20T02:05:04.188Z,4.37
2019-02-20T02:07:31.602Z,4.33
2019-02-20T02:09:58.998Z,4.30
2019-02-20T02:12:26.423Z,4.20
2019-02-20T02:14:53.848Z,3.80
2019-02-20T02:17:21.338Z,4.10
2019-02-20T02:19:48.739Z,4.40
2019-02-20T02:22:16.167Z,4.53
2019-02-20T02:24:43.576Z,4.00
2019-02-20T02:27:14.126Z,4.40
2019-02-20T02:29:41.584Z,4.93
2019-02-20T02:32:08.995Z,4.63
2019-02-20T02:34:36.375Z,4.37
2019-02-20T02:37:03.819Z,4.37
2019-02-20T02:39:31.216Z,4.30
2019-02-20T02:41:58.627Z,4.57
2019-02-20T02:44:26.050Z,4.47
2019-02-20T02:46:53.587Z,4.53
2019-02-20T02:49:21.059Z,4.60
2019-02-20T02:51:48.567Z,4.37
2019-02-20T02:54:15.959Z,4.50
2019-02-20T02:56:43.363Z,4.80
2019-02-20T02:59:10.802Z,4.63
2019-02-20T03:01:38.221Z,4.57
2019-02-20T03:04:05.651Z,4.50
2019-02-20T03:06:33.164Z,4.70
2019-02-20T03:09:01.338Z,4.67
2019-02-20T03:11:28.740Z,4.23
2019-02-20T03:13:56.163Z,4.63
2019-02-20T03:16:23.846Z,4.67
2019-02-20T03:18:51.284Z,4.40
2019-02-20T03:21:18.726Z,4.77
2019-02-20T03:23:46.195Z,4.27
2019-02-20T03:26:13.685Z,4.90
2019-02-20T03:28:41.137Z,4.33
2019-02-20T03:31:08.641Z,4.40
2019-02-20T03:33:36.065Z,4.83
2019-02-20T03:36:03.555Z,4.17
2019-02-20T03:38:31.051Z,4.77
2019-02-20T03:40:58.488Z,4.30
2019-02-20T03:43:25.989Z,4.07
2019-02-20T03:45:53.397Z,4.60
2019-02-20T03:48:20.818Z,4.77
2019-02-20T03:50:48.258Z,4.63
2019-02-20T03:53:16.257Z,4.70
2019-02-20T03:55:43.698Z,4.70
2019-02-20T03:58:11.246Z,4.53
2019-02-20T04:00:38.831Z,5.27
2019-02-20T04:03:06.232Z,4.80
2019-02-20T04:05:33.641Z,4.67
2019-02-20T04:08:01.034Z,4.57
2019-02-20T04:10:28.436Z,4.53
2019-02-20T04:12:56.104Z,4.43
2019-02-20T04:15:23.528Z,4.70
2019-02-20T04:17:50.920Z,4.30
2019-02-20T04:20:18.489Z,4.23
2019-02-20T04:22:45.951Z,4.90
2019-02-20T04:25:13.350Z,4.73
2019-02-20T04:27:40.756Z,4.70
2019-02-20T04:30:08.270Z,4.40
2019-02-20T04:32:35.792Z,4.53
2019-02-20T04:35:03.235Z,4.80
2019-02-20T04:37:30.626Z,4.60
2019-02-20T04:39:58.060Z,5.23
2019-02-20T04:42:25.556Z,4.43
2019-02-20T04:44:52.953Z,3.93
2019-02-20T04:47:20.937Z,4.40
2019-02-20T04:49:48.362Z,4.70
2019-02-20T04:52:15.779Z,4.40
2019-02-20T04:54:43.350Z,4.30
2019-02-20T04:57:10.752Z,4.13
2019-02-20T04:59:38.294Z,4.50
2019-02-20T05:02:05.752Z,4.13
2019-02-20T05:04:33.174Z,4.03
2019-02-20T05:07:00.707Z,4.83
2019-02-20T05:09:28.249Z,3.73
2019-02-20T05:11:55.670Z,4.23
2019-02-20T05:14:23.054Z,4.20
2019-02-20T05:16:50.564Z,3.50
2019-02-20T05:19:18.150Z,4.10
2019-02-20T05:21:45.622Z,4.13
2019-02-20T05:24:23.781Z,4.17
2019-02-20T05:26:42.169Z,4.13
2019-02-20T05:29:09.565Z,3.67
2019-02-20T05:31:36.981Z,3.50
2019-02-20T05:34:04.373Z,3.77
2019-02-20T05:36:31.767Z,3.60
2019-02-20T05:38:59.787Z,3.27
2019-02-20T05:41:27.303Z,3.50
2019-02-20T05:43:54.714Z,3.20
2019-02-20T05:46:22.116Z,3.10
2019-02-20T05:48:50.799Z,3.10
2019-02-20T05:51:18.515Z,2.90
2019-02-20T05:53:46.157Z,3.27
2019-02-20T05:56:13.573Z,3.67
2019-02-20T05:58:41.141Z,3.33
2019-02-20T06:01:08.633Z,3.17
2019-02-20T06:03:36.110Z,3.33
2019-02-20T06:06:03.504Z,3.20
2019-02-20T06:08:31.151Z,2.87
2019-02-20T06:10:58.645Z,3.30
2019-02-20T06:13:26.036Z,3.30
2019-02-20T06:15:53.486Z,3.20
2019-02-20T06:18:23.747Z,3.50
2019-02-20T06:20:51.166Z,2.72
2019-02-20T06:23:18.912Z,2.83
2019-02-20T06:25:46.300Z,3.30
2019-02-20T06:28:13.706Z,3.07
2019-02-20T06:30:41.153Z,3.30
2019-02-20T06:33:08.586Z,3.00
2019-02-20T06:35:36.277Z,3.03
2019-02-20T06:38:03.739Z,3.10
2019-02-20T06:40:31.728Z,3.30
2019-02-20T06:42:59.187Z,2.90
2019-02-20T06:45:26.645Z,3.17
2019-02-20T06:47:54.060Z,3.12
2019-02-20T06:50:21.590Z,3.10
2019-02-20T06:52:49.101Z,3.10
2019-02-20T06:55:16.553Z,3.17
2019-02-20T06:57:43.975Z,2.90
2019-02-20T07:00:11.769Z,3.53
2019-02-20T07:02:39.215Z,3.87
2019-02-20T07:05:06.738Z,3.52
2019-02-20T07:07:34.162Z,3.70
2019-02-20T07:10:01.829Z,4.10
2019-02-20T07:12:29.311Z,4.00
2019-02-20T07:14:56.937Z,3.43
2019-02-20T07:17:24.433Z,4.28
2019-02-20T07:19:52.023Z,4.50
2019-02-20T07:22:20.886Z,4.35
2019-02-20T07:24:48.485Z,4.50
2019-02-20T07:27:15.885Z,4.67
2019-02-20T07:30:02.220Z,4.43
2019-02-20T07:32:29.648Z,4.75
2019-02-20T07:34:57.125Z,4.63
2019-02-20T07:37:24.562Z,4.13
2019-02-20T07:39:52.041Z,4.50
2019-02-20T07:42:19.515Z,4.73
2019-02-20T07:44:47.003Z,4.13
2019-02-20T07:47:14.432Z,4.40
2019-02-20T07:49:41.881Z,4.08
2019-02-20T07:52:09.301Z,3.65
2019-02-20T07:54:36.766Z,3.97
2019-02-20T07:57:04.197Z,4.10
2019-02-20T07:59:31.687Z,4.00
2019-02-20T08:01:59.167Z,3.90
2019-02-20T08:04:26.620Z,4.20
2019-02-20T08:06:54.025Z,3.90
2019-02-20T08:09:21.576Z,4.20
2019-02-20T08:11:49.004Z,4.03
2019-02-20T08:14:16.493Z,3.93
2019-02-20T08:16:51.993Z,3.93
2019-02-20T08:19:13.026Z,4.23
2019-02-20T08:21:40.494Z,3.70
2019-02-20T08:24:07.894Z,4.00
2019-02-20T08:26:35.406Z,4.00
2019-02-20T08:29:02.902Z,4.40
2019-02-20T08:31:30.365Z,4.20
2019-02-20T08:33:57.793Z,4.33
2019-02-20T08:36:25.543Z,4.17
2019-02-20T08:38:52.946Z,4.00
2019-02-20T08:41:20.389Z,5.20
2019-02-20T08:43:47.855Z,5.00
2019-02-20T08:46:15.514Z,5.95
2019-02-20T08:48:43.009Z,5.70
2019-02-20T08:51:10.436Z,5.90
2019-02-20T08:53:37.836Z,6.08
2019-02-20T08:56:05.857Z,5.85
2019-02-20T08:58:33.373Z,6.57
2019-02-20T09:01:00.942Z,6.00
2019-02-20T09:03:28.400Z,6.65
2019-02-20T09:05:55.876Z,6.53
2019-02-20T09:08:23.288Z,6.78
2019-02-20T09:10:50.672Z,6.90
2019-02-20T09:13:18.111Z,7.20
2019-02-20T09:15:45.646Z,7.05
2019-02-20T09:18:13.153Z,6.90
2019-02-20T09:20:40.549Z,6.80
2019-02-20T09:23:07.959Z,6.70
2019-02-20T09:25:41.482Z,6.58
2019-02-20T09:28:04.522Z,6.65
2019-02-20T09:30:31.909Z,6.22
2019-02-20T09:32:59.470Z,6.30
2019-02-20T09:35:30.568Z,6.65
2019-02-20T09:37:58.057Z,6.77
2019-02-20T09:40:25.507Z,6.80
2019-02-20T09:42:53.219Z,6.90
2019-02-20T09:45:20.848Z,6.43
2019-02-20T09:47:48.380Z,7.27
2019-02-20T09:50:15.812Z,6.42
2019-02-20T09:52:51.894Z,6.62
2019-02-20T09:55:12.487Z,6.95
2019-02-20T09:57:39.978Z,6.30
2019-02-20T10:00:07.408Z,6.15
2019-02-20T10:02:34.803Z,6.28
2019-02-20T10:05:02.207Z,6.50
2019-02-20T10:07:29.618Z,6.55
2019-02-20T10:09:57.018Z,6.77
2019-02-20T10:12:24.433Z,6.28
2019-02-20T10:14:51.888Z,6.23
2019-02-20T10:17:19.416Z,6.33
2019-02-20T10:19:46.829Z,5.78
2019-02-20T10:22:14.266Z,6.55
2019-02-20T10:24:41.660Z,6.22
2019-02-20T10:27:09.187Z,5.58
2019-02-20T10:29:36.727Z,5.90
2019-02-20T10:32:04.239Z,6.30
2019-02-20T10:34:31.688Z,5.80
2019-02-20T10:37:02.190Z,5.80
2019-02-20T10:39:29.676Z,6.60
2019-02-20T10:41:57.079Z,6.13
2019-02-20T10:44:24.465Z,6.07
2019-02-20T10:46:51.885Z,5.90
2019-02-20T10:49:23.762Z,6.07
2019-02-20T10:51:51.301Z,6.00
2019-02-20T10:54:18.707Z,5.90
2019-02-20T10:56:46.183Z,5.40
2019-02-20T10:59:13.859Z,5.73
2019-02-20T11:01:41.287Z,5.70
2019-02-20T11:04:08.690Z,5.63
2019-02-20T11:06:36.117Z,5.70
2019-02-20T11:09:04.541Z,5.73
2019-02-20T11:11:31.954Z,5.40
2019-02-20T11:13:59.363Z,5.40
2019-02-20T11:16:26.797Z,5.40
2019-02-20T11:18:54.198Z,5.80
2019-02-20T11:21:21.657Z,5.27
2019-02-20T11:23:49.106Z,4.87
2019-02-20T11:26:18.426Z,4.73
2019-02-20T11:28:45.636Z,4.95
2019-02-20T11:31:13.088Z,4.72
2019-02-20T11:33:40.472Z,4.83
2019-02-20T11:36:07.902Z,4.40
2019-02-20T11:38:35.558Z,4.75
2019-02-20T11:41:03.031Z,4.57
2019-02-20T11:43:30.676Z,4.60
2019-02-20T11:45:58.099Z,4.50
2019-02-20T11:48:28.706Z,4.53
2019-02-20T11:50:56.123Z,4.67
2019-02-20T11:53:23.513Z,4.22
2019-02-20T11:55:51.823Z,4.67
2019-02-20T11:58:19.213Z,4.60
2019-02-20T12:00:46.619Z,4.00
2019-02-20T12:03:14.044Z,4.17
2019-02-20T12:05:43.250Z,4.40
2019-02-20T12:08:10.654Z,4.22
2019-02-20T12:10:38.125Z,3.90
2019-02-20T12:13:05.548Z,4.45
2019-02-20T12:15:33.036Z,4.28
2019-02-20T12:18:00.589Z,3.92
2019-02-20T12:20:28.045Z,4.20
2019-02-20T12:22:55.473Z,4.12
2019-02-20T12:25:23.056Z,3.85
2019-02-20T12:27:50.488Z,4.70
2019-02-20T12:30:17.877Z,4.28
2019-02-20T12:32:45.353Z,4.28
2019-02-20T12:35:12.787Z,4.10
2019-02-20T12:37:40.181Z,4.28
2019-02-20T12:40:07.863Z,4.20
2019-02-20T12:42:35.311Z,4.60
2019-02-20T12:45:02.807Z,4.30
2019-02-20T12:47:30.253Z,4.70
2019-02-20T12:49:57.654Z,3.60
2019-02-20T12:52:26.494Z,3.62
2019-02-20T12:54:54.068Z,3.60
2019-02-20T12:57:21.446Z,3.85
2019-02-20T12:59:48.841Z,3.42
2019-02-20T13:02:16.277Z,3.62
2019-02-20T13:04:43.709Z,3.40
2019-02-20T13:07:11.111Z,3.72
2019-02-20T13:09:38.533Z,3.35
2019-02-20T13:12:05.954Z,3.37
2019-02-20T13:14:33.410Z,3.40
2019-02-20T13:17:00.895Z,3.25
2019-02-20T13:19:28.447Z,3.58
2019-02-20T13:21:55.845Z,3.80
2019-02-20T13:24:23.283Z,3.30
2019-02-20T13:26:53.111Z,3.60
2019-02-20T13:29:19.797Z,3.35
2019-02-20T13:31:47.237Z,3.85
2019-02-20T13:34:14.638Z,3.55
2019-02-20T13:36:42.171Z,3.70
2019-02-20T13:39:09.705Z,3.55
2019-02-20T13:41:37.136Z,3.92
2019-02-20T13:44:04.618Z,3.45
2019-02-20T13:46:32.380Z,3.77
2019-02-20T13:48:59.865Z,3.83
2019-02-20T13:51:27.344Z,3.52
2019-02-20T13:53:54.847Z,3.63
2019-02-20T13:56:22.407Z,3.55
2019-02-20T13:58:49.884Z,3.72
2019-02-20T14:01:17.339Z,3.42
2019-02-20T14:03:44.759Z,3.15
2019-02-20T14:06:12.569Z,3.40
2019-02-20T14:08:40.075Z,3.33
2019-02-20T14:11:07.940Z,2.90
2019-02-20T14:13:35.429Z,3.50
2019-02-20T14:16:02.935Z,3.35
2019-02-20T14:18:30.425Z,2.90
2019-02-20T14:20:57.888Z,3.12
2019-02-20T14:23:25.776Z,3.10
2019-02-20T14:25:53.462Z,2.90
2019-02-20T14:28:20.926Z,3.10
2019-02-20T14:30:48.418Z,2.80
2019-02-20T14:33:15.885Z,2.67
2019-02-20T14:35:43.375Z,2.83
2019-02-20T14:38:10.893Z,2.55
2019-02-20T14:40:38.392Z,2.50
2019-02-20T14:43:05.792Z,2.83
2019-02-20T14:45:33.292Z,2.50
2019-02-20T14:48:01.158Z,2.52
2019-02-20T14:50:28.640Z,2.40
2019-02-20T14:52:56.128Z,2.40
2019-02-20T14:55:23.613Z,2.65
2019-02-20T14:57:51.326Z,2.60
2019-02-20T15:00:18.774Z,2.70
2019-02-20T15:02:46.285Z,2.60
2019-02-20T15:05:13.755Z,2.42
2019-02-20T15:07:41.242Z,2.27
2019-02-20T15:10:09.255Z,2.37
2019-02-20T15:12:36.699Z,2.20
2019-02-20T15:15:10.337Z,2.17
2019-02-20T15:17:33.350Z,2.40
2019-02-20T15:20:00.879Z,2.22
2019-02-20T15:22:28.554Z,2.30
2019-02-20T15:24:55.976Z,2.12
2019-02-20T15:27:28.636Z,2.20
2019-02-20T15:29:52.597Z,2.42
2019-02-20T15:32:20.103Z,2.60
2019-02-20T15:34:47.622Z,2.10
2019-02-20T15:37:15.146Z,2.90
2019-02-20T15:39:43.076Z,2.40
2019-02-20T15:42:10.872Z,2.90
2019-02-20T15:44:38.369Z,2.40
2019-02-20T15:47:05.827Z,2.47
2019-02-20T15:49:33.295Z,2.70
2019-02-20T15:52:00.833Z,2.42
2019-02-20T15:54:28.303Z,2.75
2019-02-20T15:56:55.794Z,2.67
2019-02-20T15:59:23.361Z,3.08
2019-02-20T16:01:50.827Z,2.70
2019-02-20T16:04:18.211Z,2.65
2019-02-20T16:06:45.784Z,2.87
2019-02-20T16:09:13.244Z,3.00
2019-02-20T16:11:40.747Z,3.00
2019-02-20T16:14:08.222Z,3.05
2019-02-20T16:16:35.628Z,3.17
2019-02-20T16:19:03.425Z,3.13
2019-02-20T16:21:30.977Z,3.50
2019-02-20T16:23:58.408Z,3.22
2019-02-20T16:26:25.816Z,3.12
2019-02-20T16:28:53.379Z,3.10
2019-02-20T16:31:20.840Z,3.40
2019-02-20T16:33:48.285Z,3.17
2019-02-20T16:36:15.866Z,3.62
2019-02-20T16:38:44.089Z,3.00
2019-02-20T16:41:11.700Z,3.47
2019-02-20T16:43:39.224Z,3.95
2019-02-20T16:46:06.710Z,3.70
2019-02-20T16:48:34.171Z,3.60
2019-02-20T16:51:01.796Z,3.42
2019-02-20T16:53:29.302Z,3.45
2019-02-20T16:55:57.313Z,3.10
2019-02-20T16:58:24.805Z,3.20
2019-02-20T17:00:52.271Z,3.75
2019-02-20T17:03:19.993Z,3.72
2019-02-20T17:05:48.598Z,3.52
2019-02-20T17:08:16.483Z,3.50
2019-02-20T17:10:43.951Z,2.95
2019-02-20T17:13:12.231Z,3.20
2019-02-20T17:15:39.883Z,3.50
2019-02-20T17:18:07.718Z,3.77
2019-02-20T17:20:35.409Z,3.92
2019-02-20T17:23:03.303Z,3.95
2019-02-20T17:25:30.818Z,3.47
2019-02-20T17:28:05.507Z,4.00
2019-02-20T17:30:27.433Z,3.75
2019-02-20T17:32:54.890Z,3.75
2019-02-20T17:35:22.532Z,3.90
2019-02-20T17:37:50.041Z,3.70
2019-02-20T17:40:17.503Z,4.25
2019-02-20T17:42:44.995Z,4.58
2019-02-20T17:45:12.675Z,4.60
2019-02-20T17:47:40.159Z,4.67
2019-02-20T17:50:07.658Z,4.17
2019-02-20T17:52:35.205Z,4.60
2019-02-20T17:55:03.185Z,4.03
2019-02-20T17:57:30.641Z,4.03
2019-02-20T17:59:58.136Z,4.53
2019-02-20T18:02:25.632Z,4.20
2019-02-20T18:04:53.071Z,4.03
2019-02-20T18:07:20.470Z,4.30
2019-02-20T18:09:47.982Z,4.55
2019-02-20T18:12:15.486Z,3.93
2019-02-20T18:14:43.677Z,4.05
2019-02-20T18:17:11.086Z,3.83
2019-02-20T18:19:38.504Z,4.12
2019-02-20T18:22:05.911Z,4.03
2019-02-20T18:24:33.356Z,4.30
2019-02-20T18:27:00.787Z,4.90
2019-02-20T18:29:28.305Z,4.28
2019-02-20T18:32:14.681Z,4.47
2019-02-20T18:34:42.080Z,3.85
2019-02-20T18:37:09.554Z,4.58
2019-02-20T18:39:37.058Z,4.20
2019-02-20T18:42:04.474Z,4.40
2019-02-20T18:44:31.946Z,4.58
2019-02-20T18:46:59.351Z,4.35
2019-02-20T18:49:26.747Z,4.40
2019-02-20T18:51:54.225Z,4.00
2019-02-20T18:54:21.731Z,4.42
2019-02-20T18:56:49.204Z,4.55
2019-02-20T18:59:16.724Z,5.22
2019-02-20T19:01:44.400Z,4.55
2019-02-20T19:04:11.892Z,4.90
2019-02-20T19:06:39.368Z,5.28
2019-02-20T19:09:06.856Z,4.35
2019-02-20T19:11:34.385Z,4.30
2019-02-20T19:14:01.897Z,4.47
2019-02-20T19:16:29.428Z,4.37
2019-02-20T19:19:02.457Z,3.95
2019-02-20T19:21:26.064Z,4.10
2019-02-20T19:23:53.570Z,4.47
2019-02-20T19:26:21.024Z,4.15
2019-02-20T19:28:48.505Z,4.05
2019-02-20T19:31:16.009Z,4.30
2019-02-20T19:33:43.418Z,3.70
2019-02-20T19:36:10.889Z,3.67
2019-02-20T19:38:38.368Z,3.60
2019-02-20T19:41:05.799Z,3.55
2019-02-20T19:43:33.182Z,4.00
2019-02-20T19:46:00.838Z,3.58
2019-02-20T19:48:28.327Z,3.70
2019-02-20T19:50:55.823Z,3.85
2019-02-20T19:53:23.303Z,3.35
2019-02-20T19:55:50.719Z,3.58
2019-02-20T19:58:18.581Z,3.92
2019-02-20T20:00:46.033Z,3.58
2019-02-20T20:03:13.413Z,3.98
2019-02-20T20:05:40.831Z,3.80
2019-02-20T20:08:08.359Z,4.10
2019-02-20T20:10:35.793Z,4.12
2019-02-20T20:13:03.264Z,3.90
2019-02-20T20:15:30.691Z,4.35
2019-02-20T20:17:58.568Z,4.67
2019-02-20T20:20:25.968Z,4.30
2019-02-20T20:22:53.468Z,4.60
2019-02-20T20:25:21.093Z,4.70
2019-02-20T20:27:48.583Z,4.70
2019-02-20T20:30:16.039Z,4.45
2019-02-20T20:32:52.550Z,4.47
2019-02-20T20:35:12.729Z,4.45
2019-02-20T20:37:40.263Z,4.87
2019-02-20T20:40:07.686Z,4.87
2019-02-20T20:42:35.169Z,4.72
2019-02-20T20:45:02.662Z,4.72
2019-02-20T20:47:30.434Z,5.62
2019-02-20T20:49:58.195Z,5.03
2019-02-20T20:52:25.618Z,5.23
2019-02-20T20:54:53.041Z,5.25
2019-02-20T20:57:20.488Z,5.50
2019-02-20T20:59:47.975Z,5.67
2019-02-20T21:02:15.361Z,5.35
2019-02-20T21:04:42.739Z,5.17
2019-02-20T21:07:10.177Z,5.30
2019-02-20T21:09:37.628Z,4.70
2019-02-20T21:12:05.121Z,5.40
2019-02-20T21:14:32.551Z,5.15
2019-02-20T21:17:00.099Z,5.22
2019-02-20T21:19:27.552Z,5.15
2019-02-20T21:21:54.935Z,5.17
2019-02-20T21:24:22.350Z,5.33
2019-02-20T21:26:50.331Z,5.17
2019-02-20T21:29:27.899Z,5.10
2019-02-20T21:31:47.174Z,5.55
2019-02-20T21:34:14.575Z,5.15
2019-02-20T21:36:42.671Z,5.33
2019-02-20T21:39:10.080Z,5.62
2019-02-20T21:41:37.553Z,5.70
2019-02-20T21:44:04.972Z,5.10
2019-02-20T21:46:32.459Z,5.45
2019-02-20T21:48:59.938Z,5.22
2019-02-20T21:51:27.530Z,5.40
2019-02-20T21:53:54.996Z,5.93
2019-02-20T21:56:22.409Z,5.10
2019-02-20T21:58:49.868Z,5.12
2019-02-20T22:01:17.360Z,5.60
2019-02-20T22:03:44.867Z,5.80
2019-02-20T22:06:12.474Z,5.90
2019-02-20T22:08:39.943Z,6.00
2019-02-20T22:11:07.356Z,5.65
2019-02-20T22:13:34.825Z,5.92
2019-02-20T22:16:02.263Z,5.70
2019-02-20T22:18:29.637Z,5.20
2019-02-20T22:20:57.061Z,5.92
2019-02-20T22:23:24.451Z,6.22
2019-02-20T22:25:52.085Z,5.87
2019-02-20T22:28:19.467Z,6.05
2019-02-20T22:30:46.859Z,6.03
2019-02-20T22:33:14.394Z,6.17
2019-02-20T22:35:41.788Z,6.35
2019-02-20T22:38:09.311Z,5.65
2019-02-20T22:40:36.854Z,6.05
2019-02-20T22:43:04.346Z,6.37
2019-02-20T22:45:33.512Z,6.17
2019-02-20T22:48:01.358Z,6.25
2019-02-20T22:50:28.781Z,6.05
2019-02-20T22:52:56.169Z,6.65
2019-02-20T22:55:23.579Z,6.17
2019-02-20T22:57:50.966Z,6.17
2019-02-20T23:00:19.944Z,6.25
2019-02-20T23:02:47.368Z,5.08
2019-02-20T23:05:14.761Z,5.58
2019-02-20T23:07:42.160Z,5.05
2019-02-20T23:10:10.127Z,5.35
2019-02-20T23:12:37.584Z,5.10
2019-02-20T23:15:04.985Z,4.78
2019-02-20T23:17:32.665Z,4.90
2019-02-20T23:20:00.352Z,5.03
2019-02-20T23:22:27.828Z,5.53
2019-02-20T23:24:55.312Z,5.20
2019-02-20T23:27:22.904Z,5.35
2019-02-20T23:29:50.354Z,5.50
2019-02-20T23:32:21.109Z,5.45
2019-02-20T23:34:48.704Z,5.95
2019-02-20T23:37:16.166Z,5.30
2019-02-20T23:39:46.342Z,5.35
2019-02-20T23:42:14.097Z,4.90
2019-02-20T23:44:41.555Z,5.10
2019-02-20T23:47:09.020Z,4.62
2019-02-20T23:49:36.469Z,4.80
2019-02-20T23:52:04.016Z,4.70
2019-02-20T23:54:31.426Z,4.95
2019-02-20T23:56:58.874Z,4.90
2019-02-20T23:59:26.269Z,4.92
